Terminal Aerodrome Forecast
Issued by NWS Cleveland, OH

Home | Current Version | Previous Version | Graphics & Text | Print | Product List | Glossary On
Versions: 1 2 3 4 5 6 7 8 9 10 11 12 13 14 15 16 17 18 19 20 21 22 23 24 25 26 27 28
000
FTUS41 KCLE 212328
TAFCLE
TAF
KCLE 212328Z 2200/2306 18008KT P6SM OVC100
     FM220800 16005KT 4SM BR OVC030
      TEMPO 2209/2213 2SM BR BKN015
     FM221400 12005KT P6SM BKN035
     FM221800 06011KT P6SM BKN045=

USA.gov is the U.S. government's official web portal to all federal, state and local government web resources and services.